sensor_id;sensor_type;location;lat;lon;timestamp;P1;durP1;ratioP1;P2;durP2;ratioP2
77234;SDS011;66253;50.526;14.974;2024-01-30T00:02:20;34.30;;;16.70;;
77234;SDS011;66253;50.526;14.974;2024-01-30T00:04:49;37.40;;;15.50;;
77234;SDS011;66253;50.526;14.974;2024-01-30T00:07:17;37.70;;;15.70;;
77234;SDS011;66253;50.526;14.974;2024-01-30T00:09:47;35.10;;;15.80;;
77234;SDS011;66253;50.526;14.974;2024-01-30T00:12:15;39.10;;;14.80;;
77234;SDS011;66253;50.526;14.974;2024-01-30T00:14:43;36.70;;;14.70;;
77234;SDS011;66253;50.526;14.974;2024-01-30T00:17:12;40.80;;;16.90;;
77234;SDS011;66253;50.526;14.974;2024-01-30T00:19:40;36.60;;;15.70;;
77234;SDS011;66253;50.526;14.974;2024-01-30T00:22:08;38.40;;;16.60;;
77234;SDS011;66253;50.526;14.974;2024-01-30T00:24:36;33.00;;;14.40;;
77234;SDS011;66253;50.526;14.974;2024-01-30T00:27:05;34.20;;;13.80;;
77234;SDS011;66253;50.526;14.974;2024-01-30T00:29:34;25.70;;;11.50;;
77234;SDS011;66253;50.526;14.974;2024-01-30T00:32:02;32.70;;;12.50;;
77234;SDS011;66253;50.526;14.974;2024-01-30T00:34:31;30.90;;;13.30;;
77234;SDS011;66253;50.526;14.974;2024-01-30T00:36:59;26.00;;;11.80;;
77234;SDS011;66253;50.526;14.974;2024-01-30T00:39:27;28.70;;;12.20;;
77234;SDS011;66253;50.526;14.974;2024-01-30T00:41:56;28.40;;;12.60;;
77234;SDS011;66253;50.526;14.974;2024-01-30T00:44:25;27.90;;;13.30;;
77234;SDS011;66253;50.526;14.974;2024-01-30T00:46:53;26.80;;;13.60;;
77234;SDS011;66253;50.526;14.974;2024-01-30T00:49:24;29.10;;;11.40;;
77234;SDS011;66253;50.526;14.974;2024-01-30T00:51:53;24.40;;;11.10;;
77234;SDS011;66253;50.526;14.974;2024-01-30T00:54:21;25.80;;;11.00;;
77234;SDS011;66253;50.526;14.974;2024-01-30T00:56:49;24.30;;;11.20;;
77234;SDS011;66253;50.526;14.974;2024-01-30T00:59:17;26.20;;;12.50;;
77234;SDS011;66253;50.526;14.974;2024-01-30T01:01:46;27.00;;;11.60;;
77234;SDS011;66253;50.526;14.974;2024-01-30T01:04:14;21.00;;;10.70;;
77234;SDS011;66253;50.526;14.974;2024-01-30T01:06:42;23.40;;;9.80;;
77234;SDS011;66253;50.526;14.974;2024-01-30T01:09:11;26.50;;;10.90;;
77234;SDS011;66253;50.526;14.974;2024-01-30T01:11:39;21.40;;;10.70;;
77234;SDS011;66253;50.526;14.974;2024-01-30T01:14:08;21.40;;;10.10;;
77234;SDS011;66253;50.526;14.974;2024-01-30T01:16:36;23.70;;;10.80;;
77234;SDS011;66253;50.526;14.974;2024-01-30T01:19:04;22.80;;;10.60;;
77234;SDS011;66253;50.526;14.974;2024-01-30T01:21:32;25.50;;;11.00;;
77234;SDS011;66253;50.526;14.974;2024-01-30T01:24:01;23.50;;;10.70;;
77234;SDS011;66253;50.526;14.974;2024-01-30T01:26:29;21.10;;;10.00;;
77234;SDS011;66253;50.526;14.974;2024-01-30T01:28:57;22.80;;;10.20;;
77234;SDS011;66253;50.526;14.974;2024-01-30T01:31:25;24.10;;;9.40;;
77234;SDS011;66253;50.526;14.974;2024-01-30T01:33:54;25.20;;;11.20;;
77234;SDS011;66253;50.526;14.974;2024-01-30T01:36:22;29.20;;;11.50;;
77234;SDS011;66253;50.526;14.974;2024-01-30T01:38:50;29.10;;;11.20;;
77234;SDS011;66253;50.526;14.974;2024-01-30T01:41:18;29.30;;;11.50;;
77234;SDS011;66253;50.526;14.974;2024-01-30T01:43:46;29.10;;;12.40;;
77234;SDS011;66253;50.526;14.974;2024-01-30T01:46:14;28.30;;;12.00;;
77234;SDS011;66253;50.526;14.974;2024-01-30T01:48:44;24.60;;;10.10;;
77234;SDS011;66253;50.526;14.974;2024-01-30T01:51:12;25.00;;;11.70;;
77234;SDS011;66253;50.526;14.974;2024-01-30T01:53:41;29.80;;;12.00;;
77234;SDS011;66253;50.526;14.974;2024-01-30T01:56:09;30.00;;;12.30;;
77234;SDS011;66253;50.526;14.974;2024-01-30T01:58:38;26.90;;;12.50;;
77234;SDS011;66253;50.526;14.974;2024-01-30T02:01:07;26.70;;;10.60;;
77234;SDS011;66253;50.526;14.974;2024-01-30T02:03:37;26.90;;;11.00;;
77234;SDS011;66253;50.526;14.974;2024-01-30T02:06:06;22.70;;;9.30;;
77234;SDS011;66253;50.526;14.974;2024-01-30T02:08:37;25.30;;;10.40;;
77234;SDS011;66253;50.526;14.974;2024-01-30T02:11:05;20.70;;;9.60;;
77234;SDS011;66253;50.526;14.974;2024-01-30T02:13:33;23.60;;;9.60;;
77234;SDS011;66253;50.526;14.974;2024-01-30T02:16:02;22.40;;;10.30;;
77234;SDS011;66253;50.526;14.974;2024-01-30T02:18:31;18.90;;;10.20;;
77234;SDS011;66253;50.526;14.974;2024-01-30T02:20:59;21.50;;;8.90;;
77234;SDS011;66253;50.526;14.974;2024-01-30T02:23:31;20.30;;;8.90;;
77234;SDS011;66253;50.526;14.974;2024-01-30T02:26:00;24.60;;;8.60;;
77234;SDS011;66253;50.526;14.974;2024-01-30T02:28:29;21.00;;;9.40;;
77234;SDS011;66253;50.526;14.974;2024-01-30T02:30:57;20.80;;;9.40;;
77234;SDS011;66253;50.526;14.974;2024-01-30T02:33:26;21.30;;;8.60;;
77234;SDS011;66253;50.526;14.974;2024-01-30T02:35:54;24.10;;;9.30;;
77234;SDS011;66253;50.526;14.974;2024-01-30T02:38:22;22.90;;;9.00;;
77234;SDS011;66253;50.526;14.974;2024-01-30T02:40:50;19.90;;;7.70;;
77234;SDS011;66253;50.526;14.974;2024-01-30T02:43:19;21.50;;;8.80;;
77234;SDS011;66253;50.526;14.974;2024-01-30T02:45:47;20.00;;;10.00;;
77234;SDS011;66253;50.526;14.974;2024-01-30T02:48:15;21.00;;;8.30;;
77234;SDS011;66253;50.526;14.974;2024-01-30T02:50:44;27.50;;;10.20;;
77234;SDS011;66253;50.526;14.974;2024-01-30T02:53:12;20.80;;;8.50;;
77234;SDS011;66253;50.526;14.974;2024-01-30T02:55:40;24.70;;;8.60;;
77234;SDS011;66253;50.526;14.974;2024-01-30T02:58:08;19.80;;;8.20;;
77234;SDS011;66253;50.526;14.974;2024-01-30T03:00:36;22.10;;;10.40;;
77234;SDS011;66253;50.526;14.974;2024-01-30T03:03:05;22.70;;;9.40;;
77234;SDS011;66253;50.526;14.974;2024-01-30T03:05:33;21.80;;;8.40;;
77234;SDS011;66253;50.526;14.974;2024-01-30T03:08:01;25.00;;;8.80;;
77234;SDS011;66253;50.526;14.974;2024-01-30T03:10:30;28.50;;;12.60;;
77234;SDS011;66253;50.526;14.974;2024-01-30T03:12:58;20.80;;;9.20;;
77234;SDS011;66253;50.526;14.974;2024-01-30T03:15:26;23.80;;;11.50;;
77234;SDS011;66253;50.526;14.974;2024-01-30T03:17:56;25.00;;;10.40;;
77234;SDS011;66253;50.526;14.974;2024-01-30T03:20:24;22.40;;;11.60;;
77234;SDS011;66253;50.526;14.974;2024-01-30T03:22:53;28.00;;;12.00;;
77234;SDS011;66253;50.526;14.974;2024-01-30T03:25:22;25.70;;;11.60;;
77234;SDS011;66253;50.526;14.974;2024-01-30T03:27:50;24.90;;;11.00;;
77234;SDS011;66253;50.526;14.974;2024-01-30T03:30:18;19.90;;;9.40;;
77234;SDS011;66253;50.526;14.974;2024-01-30T03:32:46;22.40;;;9.80;;
77234;SDS011;66253;50.526;14.974;2024-01-30T03:35:15;23.10;;;11.00;;
77234;SDS011;66253;50.526;14.974;2024-01-30T03:37:43;22.30;;;12.00;;
77234;SDS011;66253;50.526;14.974;2024-01-30T03:40:12;26.80;;;13.20;;
77234;SDS011;66253;50.526;14.974;2024-01-30T03:42:40;22.80;;;12.10;;
77234;SDS011;66253;50.526;14.974;2024-01-30T03:45:09;26.80;;;12.80;;
77234;SDS011;66253;50.526;14.974;2024-01-30T03:47:37;21.90;;;10.90;;
77234;SDS011;66253;50.526;14.974;2024-01-30T03:50:06;24.40;;;11.10;;
77234;SDS011;66253;50.526;14.974;2024-01-30T03:52:35;26.40;;;11.30;;
77234;SDS011;66253;50.526;14.974;2024-01-30T03:55:03;26.90;;;11.70;;
77234;SDS011;66253;50.526;14.974;2024-01-30T03:57:32;20.70;;;10.40;;
77234;SDS011;66253;50.526;14.974;2024-01-30T04:00:00;21.80;;;9.70;;
77234;SDS011;66253;50.526;14.974;2024-01-30T04:02:31;21.00;;;9.00;;
77234;SDS011;66253;50.526;14.974;2024-01-30T04:04:59;23.80;;;10.10;;
77234;SDS011;66253;50.526;14.974;2024-01-30T04:07:29;19.00;;;8.40;;
77234;SDS011;66253;50.526;14.974;2024-01-30T04:09:58;21.40;;;10.00;;
77234;SDS011;66253;50.526;14.974;2024-01-30T04:12:26;24.70;;;11.00;;
77234;SDS011;66253;50.526;14.974;2024-01-30T04:14:54;25.20;;;10.20;;
77234;SDS011;66253;50.526;14.974;2024-01-30T04:17:22;25.90;;;12.40;;
77234;SDS011;66253;50.526;14.974;2024-01-30T04:19:51;30.30;;;13.40;;
77234;SDS011;66253;50.526;14.974;2024-01-30T04:22:19;26.20;;;12.10;;
77234;SDS011;66253;50.526;14.974;2024-01-30T04:24:47;25.80;;;11.20;;
77234;SDS011;66253;50.526;14.974;2024-01-30T04:27:15;27.30;;;11.20;;
77234;SDS011;66253;50.526;14.974;2024-01-30T04:29:43;27.30;;;11.00;;
77234;SDS011;66253;50.526;14.974;2024-01-30T04:32:12;21.70;;;10.10;;
77234;SDS011;66253;50.526;14.974;2024-01-30T04:34:40;24.80;;;9.80;;
77234;SDS011;66253;50.526;14.974;2024-01-30T04:37:08;25.40;;;10.20;;
77234;SDS011;66253;50.526;14.974;2024-01-30T04:39:36;25.70;;;11.50;;
77234;SDS011;66253;50.526;14.974;2024-01-30T04:42:05;25.50;;;11.10;;
77234;SDS011;66253;50.526;14.974;2024-01-30T04:44:33;26.20;;;10.50;;
77234;SDS011;66253;50.526;14.974;2024-01-30T04:47:01;24.30;;;10.60;;
77234;SDS011;66253;50.526;14.974;2024-01-30T04:49:30;29.50;;;12.80;;
77234;SDS011;66253;50.526;14.974;2024-01-30T04:51:59;32.50;;;17.50;;
77234;SDS011;66253;50.526;14.974;2024-01-30T04:54:28;31.80;;;15.20;;
77234;SDS011;66253;50.526;14.974;2024-01-30T04:56:56;25.60;;;12.40;;
77234;SDS011;66253;50.526;14.974;2024-01-30T04:59:25;25.70;;;10.50;;
77234;SDS011;66253;50.526;14.974;2024-01-30T05:01:53;25.70;;;12.20;;
77234;SDS011;66253;50.526;14.974;2024-01-30T05:04:21;22.40;;;9.90;;
77234;SDS011;66253;50.526;14.974;2024-01-30T05:06:49;23.50;;;11.20;;
77234;SDS011;66253;50.526;14.974;2024-01-30T05:09:18;27.00;;;11.10;;
77234;SDS011;66253;50.526;14.974;2024-01-30T05:11:46;20.70;;;9.80;;
77234;SDS011;66253;50.526;14.974;2024-01-30T05:14:14;22.80;;;9.20;;
77234;SDS011;66253;50.526;14.974;2024-01-30T05:16:42;20.00;;;9.20;;
77234;SDS011;66253;50.526;14.974;2024-01-30T05:19:11;19.10;;;8.20;;
77234;SDS011;66253;50.526;14.974;2024-01-30T05:21:39;24.30;;;9.10;;
77234;SDS011;66253;50.526;14.974;2024-01-30T05:24:07;23.10;;;8.40;;
77234;SDS011;66253;50.526;14.974;2024-01-30T05:26:36;18.90;;;8.60;;
77234;SDS011;66253;50.526;14.974;2024-01-30T05:29:05;22.10;;;9.10;;
77234;SDS011;66253;50.526;14.974;2024-01-30T05:31:33;22.80;;;8.80;;
77234;SDS011;66253;50.526;14.974;2024-01-30T05:34:02;19.70;;;8.00;;
77234;SDS011;66253;50.526;14.974;2024-01-30T05:36:30;17.10;;;7.30;;
77234;SDS011;66253;50.526;14.974;2024-01-30T05:38:59;18.70;;;7.60;;
77234;SDS011;66253;50.526;14.974;2024-01-30T05:41:28;19.50;;;7.80;;
77234;SDS011;66253;50.526;14.974;2024-01-30T05:43:57;17.00;;;7.60;;
77234;SDS011;66253;50.526;14.974;2024-01-30T05:46:25;21.10;;;8.10;;
77234;SDS011;66253;50.526;14.974;2024-01-30T05:48:53;18.30;;;6.30;;
77234;SDS011;66253;50.526;14.974;2024-01-30T05:51:21;18.00;;;6.60;;
77234;SDS011;66253;50.526;14.974;2024-01-30T05:53:50;15.70;;;6.60;;
77234;SDS011;66253;50.526;14.974;2024-01-30T05:56:18;14.00;;;6.20;;
77234;SDS011;66253;50.526;14.974;2024-01-30T05:58:46;16.30;;;7.00;;
77234;SDS011;66253;50.526;14.974;2024-01-30T06:01:14;18.30;;;6.10;;
77234;SDS011;66253;50.526;14.974;2024-01-30T06:03:43;16.60;;;7.10;;
77234;SDS011;66253;50.526;14.974;2024-01-30T06:06:11;15.90;;;5.90;;
77234;SDS011;66253;50.526;14.974;2024-01-30T06:08:39;14.40;;;6.50;;
77234;SDS011;66253;50.526;14.974;2024-01-30T06:11:11;15.00;;;5.40;;
77234;SDS011;66253;50.526;14.974;2024-01-30T06:13:39;12.70;;;5.20;;
77234;SDS011;66253;50.526;14.974;2024-01-30T06:16:10;13.80;;;6.50;;
77234;SDS011;66253;50.526;14.974;2024-01-30T06:18:38;14.80;;;5.20;;
77234;SDS011;66253;50.526;14.974;2024-01-30T06:21:06;15.20;;;6.10;;
77234;SDS011;66253;50.526;14.974;2024-01-30T06:23:34;15.20;;;5.90;;
77234;SDS011;66253;50.526;14.974;2024-01-30T06:26:03;14.70;;;6.20;;
77234;SDS011;66253;50.526;14.974;2024-01-30T06:28:31;14.50;;;5.20;;
77234;SDS011;66253;50.526;14.974;2024-01-30T06:31:01;13.50;;;5.50;;
77234;SDS011;66253;50.526;14.974;2024-01-30T06:33:30;15.50;;;6.40;;
77234;SDS011;66253;50.526;14.974;2024-01-30T06:35:58;15.80;;;5.90;;
77234;SDS011;66253;50.526;14.974;2024-01-30T06:38:26;15.90;;;6.80;;
77234;SDS011;66253;50.526;14.974;2024-01-30T06:40:55;14.90;;;5.80;;
77234;SDS011;66253;50.526;14.974;2024-01-30T06:43:23;15.90;;;5.80;;
77234;SDS011;66253;50.526;14.974;2024-01-30T06:45:51;16.00;;;6.00;;
77234;SDS011;66253;50.526;14.974;2024-01-30T06:48:19;13.20;;;5.90;;
77234;SDS011;66253;50.526;14.974;2024-01-30T06:50:48;18.00;;;6.40;;
77234;SDS011;66253;50.526;14.974;2024-01-30T06:53:16;16.50;;;6.40;;
77234;SDS011;66253;50.526;14.974;2024-01-30T06:55:44;13.60;;;5.80;;
77234;SDS011;66253;50.526;14.974;2024-01-30T06:58:13;14.20;;;6.20;;
77234;SDS011;66253;50.526;14.974;2024-01-30T07:00:41;17.90;;;6.80;;
77234;SDS011;66253;50.526;14.974;2024-01-30T07:03:09;18.40;;;6.10;;
77234;SDS011;66253;50.526;14.974;2024-01-30T07:05:37;15.20;;;5.40;;
77234;SDS011;66253;50.526;14.974;2024-01-30T07:08:06;18.10;;;6.30;;
77234;SDS011;66253;50.526;14.974;2024-01-30T07:10:34;21.30;;;9.00;;
77234;SDS011;66253;50.526;14.974;2024-01-30T07:13:03;20.90;;;8.50;;
77234;SDS011;66253;50.526;14.974;2024-01-30T07:15:31;18.10;;;7.40;;
77234;SDS011;66253;50.526;14.974;2024-01-30T07:18:00;18.50;;;7.70;;
77234;SDS011;66253;50.526;14.974;2024-01-30T07:20:29;19.60;;;8.40;;
77234;SDS011;66253;50.526;14.974;2024-01-30T07:22:58;19.10;;;7.50;;
77234;SDS011;66253;50.526;14.974;2024-01-30T07:25:26;16.80;;;7.60;;
77234;SDS011;66253;50.526;14.974;2024-01-30T07:27:54;19.70;;;7.50;;
77234;SDS011;66253;50.526;14.974;2024-01-30T07:30:22;20.70;;;9.40;;
77234;SDS011;66253;50.526;14.974;2024-01-30T07:32:51;20.30;;;8.20;;
77234;SDS011;66253;50.526;14.974;2024-01-30T07:35:19;22.50;;;9.40;;
77234;SDS011;66253;50.526;14.974;2024-01-30T07:37:47;17.20;;;8.00;;
77234;SDS011;66253;50.526;14.974;2024-01-30T07:40:16;21.30;;;9.80;;
77234;SDS011;66253;50.526;14.974;2024-01-30T07:42:44;22.90;;;10.00;;
77234;SDS011;66253;50.526;14.974;2024-01-30T07:45:12;30.50;;;11.30;;
77234;SDS011;66253;50.526;14.974;2024-01-30T07:47:41;27.10;;;11.40;;
77234;SDS011;66253;50.526;14.974;2024-01-30T07:50:09;23.40;;;11.30;;
77234;SDS011;66253;50.526;14.974;2024-01-30T07:52:41;21.10;;;10.80;;
77234;SDS011;66253;50.526;14.974;2024-01-30T07:55:09;22.00;;;10.40;;
77234;SDS011;66253;50.526;14.974;2024-01-30T07:57:43;24.70;;;10.60;;
77234;SDS011;66253;50.526;14.974;2024-01-30T08:00:14;20.90;;;10.50;;
77234;SDS011;66253;50.526;14.974;2024-01-30T08:05:10;17.20;;;7.70;;
77234;SDS011;66253;50.526;14.974;2024-01-30T08:07:38;24.80;;;11.70;;
77234;SDS011;66253;50.526;14.974;2024-01-30T08:10:07;23.90;;;10.10;;
77234;SDS011;66253;50.526;14.974;2024-01-30T08:12:37;22.80;;;10.70;;
77234;SDS011;66253;50.526;14.974;2024-01-30T08:15:06;25.40;;;13.70;;
77234;SDS011;66253;50.526;14.974;2024-01-30T08:17:35;25.00;;;11.50;;
77234;SDS011;66253;50.526;14.974;2024-01-30T08:20:04;28.70;;;11.50;;
77234;SDS011;66253;50.526;14.974;2024-01-30T08:22:34;22.70;;;8.80;;
77234;SDS011;66253;50.526;14.974;2024-01-30T08:25:05;16.10;;;6.60;;
77234;SDS011;66253;50.526;14.974;2024-01-30T08:27:34;17.50;;;6.80;;
77234;SDS011;66253;50.526;14.974;2024-01-30T08:30:02;16.70;;;7.90;;
77234;SDS011;66253;50.526;14.974;2024-01-30T08:32:32;17.10;;;7.40;;
77234;SDS011;66253;50.526;14.974;2024-01-30T08:35:00;17.80;;;7.30;;
77234;SDS011;66253;50.526;14.974;2024-01-30T08:37:30;15.50;;;8.40;;
77234;SDS011;66253;50.526;14.974;2024-01-30T08:39:59;19.30;;;7.70;;
77234;SDS011;66253;50.526;14.974;2024-01-30T08:42:27;19.20;;;7.30;;
77234;SDS011;66253;50.526;14.974;2024-01-30T08:44:56;21.30;;;8.10;;
77234;SDS011;66253;50.526;14.974;2024-01-30T08:47:24;23.50;;;8.10;;
77234;SDS011;66253;50.526;14.974;2024-01-30T08:49:53;23.90;;;9.00;;
77234;SDS011;66253;50.526;14.974;2024-01-30T08:52:21;23.40;;;10.10;;
77234;SDS011;66253;50.526;14.974;2024-01-30T08:54:49;15.90;;;7.50;;
77234;SDS011;66253;50.526;14.974;2024-01-30T08:57:17;20.60;;;8.10;;
77234;SDS011;66253;50.526;14.974;2024-01-30T08:59:46;18.50;;;8.30;;
77234;SDS011;66253;50.526;14.974;2024-01-30T09:02:14;24.00;;;9.30;;
77234;SDS011;66253;50.526;14.974;2024-01-30T09:04:42;17.40;;;8.40;;
77234;SDS011;66253;50.526;14.974;2024-01-30T09:07:11;16.60;;;6.70;;
77234;SDS011;66253;50.526;14.974;2024-01-30T09:09:39;16.30;;;6.90;;
77234;SDS011;66253;50.526;14.974;2024-01-30T09:12:08;16.00;;;6.10;;
77234;SDS011;66253;50.526;14.974;2024-01-30T09:14:37;13.00;;;6.40;;
77234;SDS011;66253;50.526;14.974;2024-01-30T09:17:05;12.50;;;5.20;;
77234;SDS011;66253;50.526;14.974;2024-01-30T09:19:34;13.30;;;7.10;;
77234;SDS011;66253;50.526;14.974;2024-01-30T09:22:02;15.10;;;6.70;;
77234;SDS011;66253;50.526;14.974;2024-01-30T09:24:31;13.70;;;6.60;;
77234;SDS011;66253;50.526;14.974;2024-01-30T09:27:00;17.20;;;7.50;;
77234;SDS011;66253;50.526;14.974;2024-01-30T09:29:30;16.30;;;6.90;;
77234;SDS011;66253;50.526;14.974;2024-01-30T09:31:59;16.10;;;6.50;;
77234;SDS011;66253;50.526;14.974;2024-01-30T09:34:27;16.60;;;5.90;;
77234;SDS011;66253;50.526;14.974;2024-01-30T09:36:55;12.20;;;5.80;;
77234;SDS011;66253;50.526;14.974;2024-01-30T09:39:24;13.30;;;6.60;;
77234;SDS011;66253;50.526;14.974;2024-01-30T09:41:54;16.70;;;6.70;;
77234;SDS011;66253;50.526;14.974;2024-01-30T09:44:27;14.30;;;6.00;;
77234;SDS011;66253;50.526;14.974;2024-01-30T09:46:57;14.20;;;6.00;;
77234;SDS011;66253;50.526;14.974;2024-01-30T09:49:25;16.80;;;6.90;;
77234;SDS011;66253;50.526;14.974;2024-01-30T09:51:54;12.00;;;6.10;;
77234;SDS011;66253;50.526;14.974;2024-01-30T09:54:22;15.30;;;5.70;;
77234;SDS011;66253;50.526;14.974;2024-01-30T09:56:51;14.70;;;6.80;;
77234;SDS011;66253;50.526;14.974;2024-01-30T09:59:19;16.20;;;6.90;;
77234;SDS011;66253;50.526;14.974;2024-01-30T10:01:47;16.20;;;6.80;;
77234;SDS011;66253;50.526;14.974;2024-01-30T10:04:16;15.00;;;6.80;;
77234;SDS011;66253;50.526;14.974;2024-01-30T10:06:45;16.50;;;7.40;;
77234;SDS011;66253;50.526;14.974;2024-01-30T10:09:14;16.20;;;7.80;;
77234;SDS011;66253;50.526;14.974;2024-01-30T10:11:42;15.10;;;7.30;;
77234;SDS011;66253;50.526;14.974;2024-01-30T10:14:10;19.20;;;8.10;;
77234;SDS011;66253;50.526;14.974;2024-01-30T10:16:39;14.40;;;5.80;;
77234;SDS011;66253;50.526;14.974;2024-01-30T10:19:07;18.70;;;7.70;;
77234;SDS011;66253;50.526;14.974;2024-01-30T10:21:35;12.70;;;5.50;;
77234;SDS011;66253;50.526;14.974;2024-01-30T10:24:04;14.50;;;7.00;;
77234;SDS011;66253;50.526;14.974;2024-01-30T10:26:33;15.30;;;7.30;;
77234;SDS011;66253;50.526;14.974;2024-01-30T10:29:04;17.00;;;7.20;;
77234;SDS011;66253;50.526;14.974;2024-01-30T10:31:32;15.00;;;7.50;;
77234;SDS011;66253;50.526;14.974;2024-01-30T10:34:00;15.40;;;8.10;;
77234;SDS011;66253;50.526;14.974;2024-01-30T10:36:29;16.40;;;7.30;;
77234;SDS011;66253;50.526;14.974;2024-01-30T10:39:03;12.80;;;6.30;;
77234;SDS011;66253;50.526;14.974;2024-01-30T10:41:34;18.10;;;7.50;;
77234;SDS011;66253;50.526;14.974;2024-01-30T10:44:09;14.90;;;7.00;;
77234;SDS011;66253;50.526;14.974;2024-01-30T10:46:38;14.70;;;8.10;;
77234;SDS011;66253;50.526;14.974;2024-01-30T10:49:09;14.80;;;6.60;;
77234;SDS011;66253;50.526;14.974;2024-01-30T10:51:38;17.40;;;6.80;;
77234;SDS011;66253;50.526;14.974;2024-01-30T10:54:07;16.30;;;7.40;;
77234;SDS011;66253;50.526;14.974;2024-01-30T10:56:36;14.00;;;7.10;;
77234;SDS011;66253;50.526;14.974;2024-01-30T10:59:06;17.40;;;7.00;;
77234;SDS011;66253;50.526;14.974;2024-01-30T11:01:35;15.60;;;7.80;;
77234;SDS011;66253;50.526;14.974;2024-01-30T11:04:04;14.60;;;7.00;;
77234;SDS011;66253;50.526;14.974;2024-01-30T11:06:32;18.60;;;8.30;;
77234;SDS011;66253;50.526;14.974;2024-01-30T11:09:10;17.10;;;8.10;;
77234;SDS011;66253;50.526;14.974;2024-01-30T11:11:49;19.90;;;8.90;;
77234;SDS011;66253;50.526;14.974;2024-01-30T11:14:23;19.40;;;9.90;;
77234;SDS011;66253;50.526;14.974;2024-01-30T11:16:52;16.70;;;8.60;;
77234;SDS011;66253;50.526;14.974;2024-01-30T11:19:24;17.80;;;8.50;;
77234;SDS011;66253;50.526;14.974;2024-01-30T11:21:53;16.20;;;8.40;;
77234;SDS011;66253;50.526;14.974;2024-01-30T11:24:22;16.20;;;7.40;;
77234;SDS011;66253;50.526;14.974;2024-01-30T11:26:55;17.10;;;8.20;;
77234;SDS011;66253;50.526;14.974;2024-01-30T11:29:25;14.70;;;7.20;;
77234;SDS011;66253;50.526;14.974;2024-01-30T11:31:54;17.30;;;7.30;;
77234;SDS011;66253;50.526;14.974;2024-01-30T11:34:23;17.20;;;8.10;;
77234;SDS011;66253;50.526;14.974;2024-01-30T11:36:53;17.20;;;8.50;;
77234;SDS011;66253;50.526;14.974;2024-01-30T11:39:24;20.10;;;8.70;;
77234;SDS011;66253;50.526;14.974;2024-01-30T11:41:53;15.30;;;7.90;;
77234;SDS011;66253;50.526;14.974;2024-01-30T11:44:22;16.50;;;7.60;;
77234;SDS011;66253;50.526;14.974;2024-01-30T11:46:51;19.50;;;8.40;;
77234;SDS011;66253;50.526;14.974;2024-01-30T11:49:19;18.90;;;9.50;;
77234;SDS011;66253;50.526;14.974;2024-01-30T11:51:48;19.80;;;9.40;;
77234;SDS011;66253;50.526;14.974;2024-01-30T11:54:16;18.20;;;9.30;;
77234;SDS011;66253;50.526;14.974;2024-01-30T11:56:45;18.00;;;8.30;;
77234;SDS011;66253;50.526;14.974;2024-01-30T11:59:13;15.80;;;7.80;;
77234;SDS011;66253;50.526;14.974;2024-01-30T12:01:41;17.90;;;8.60;;
77234;SDS011;66253;50.526;14.974;2024-01-30T12:04:10;20.30;;;8.70;;
77234;SDS011;66253;50.526;14.974;2024-01-30T12:06:38;19.80;;;9.30;;
77234;SDS011;66253;50.526;14.974;2024-01-30T12:09:08;20.10;;;8.90;;
77234;SDS011;66253;50.526;14.974;2024-01-30T12:11:44;19.50;;;8.30;;
77234;SDS011;66253;50.526;14.974;2024-01-30T12:14:15;17.10;;;8.50;;
77234;SDS011;66253;50.526;14.974;2024-01-30T12:16:47;18.90;;;9.00;;
77234;SDS011;66253;50.526;14.974;2024-01-30T12:19:22;22.00;;;11.00;;
77234;SDS011;66253;50.526;14.974;2024-01-30T12:21:54;19.30;;;9.10;;
77234;SDS011;66253;50.526;14.974;2024-01-30T12:24:23;17.20;;;8.50;;
77234;SDS011;66253;50.526;14.974;2024-01-30T12:26:52;18.90;;;8.20;;
77234;SDS011;66253;50.526;14.974;2024-01-30T12:29:22;18.20;;;9.60;;
77234;SDS011;66253;50.526;14.974;2024-01-30T12:31:53;18.30;;;8.70;;
77234;SDS011;66253;50.526;14.974;2024-01-30T12:34:22;18.60;;;8.90;;
77234;SDS011;66253;50.526;14.974;2024-01-30T12:36:52;19.70;;;9.90;;
77234;SDS011;66253;50.526;14.974;2024-01-30T12:39:20;21.40;;;9.50;;
77234;SDS011;66253;50.526;14.974;2024-01-30T12:41:49;21.00;;;11.00;;
77234;SDS011;66253;50.526;14.974;2024-01-30T12:44:18;18.10;;;8.40;;
77234;SDS011;66253;50.526;14.974;2024-01-30T12:46:46;20.40;;;10.80;;
77234;SDS011;66253;50.526;14.974;2024-01-30T12:49:18;23.30;;;11.90;;
77234;SDS011;66253;50.526;14.974;2024-01-30T12:51:46;18.60;;;10.50;;
77234;SDS011;66253;50.526;14.974;2024-01-30T12:54:14;19.40;;;9.90;;
77234;SDS011;66253;50.526;14.974;2024-01-30T12:56:43;16.70;;;8.40;;
77234;SDS011;66253;50.526;14.974;2024-01-30T12:59:11;20.50;;;11.10;;
77234;SDS011;66253;50.526;14.974;2024-01-30T13:01:39;20.40;;;9.40;;
77234;SDS011;66253;50.526;14.974;2024-01-30T13:04:08;18.10;;;10.10;;
77234;SDS011;66253;50.526;14.974;2024-01-30T13:06:36;19.50;;;8.50;;
77234;SDS011;66253;50.526;14.974;2024-01-30T13:09:04;18.80;;;9.10;;
77234;SDS011;66253;50.526;14.974;2024-01-30T13:11:33;18.00;;;10.10;;
77234;SDS011;66253;50.526;14.974;2024-01-30T13:14:01;18.00;;;9.50;;
77234;SDS011;66253;50.526;14.974;2024-01-30T13:16:29;20.30;;;9.70;;
77234;SDS011;66253;50.526;14.974;2024-01-30T13:18:57;17.60;;;8.60;;
77234;SDS011;66253;50.526;14.974;2024-01-30T13:21:26;16.00;;;8.70;;
77234;SDS011;66253;50.526;14.974;2024-01-30T13:23:54;16.40;;;9.20;;
77234;SDS011;66253;50.526;14.974;2024-01-30T13:26:22;21.20;;;9.20;;
77234;SDS011;66253;50.526;14.974;2024-01-30T13:28:51;22.10;;;10.00;;
77234;SDS011;66253;50.526;14.974;2024-01-30T13:31:19;19.20;;;10.80;;
77234;SDS011;66253;50.526;14.974;2024-01-30T13:33:47;21.00;;;9.30;;
77234;SDS011;66253;50.526;14.974;2024-01-30T13:36:16;22.10;;;9.90;;
77234;SDS011;66253;50.526;14.974;2024-01-30T13:38:44;21.10;;;10.00;;
77234;SDS011;66253;50.526;14.974;2024-01-30T13:41:13;18.20;;;8.80;;
77234;SDS011;66253;50.526;14.974;2024-01-30T13:43:44;21.80;;;10.10;;
77234;SDS011;66253;50.526;14.974;2024-01-30T13:46:12;24.00;;;12.70;;
77234;SDS011;66253;50.526;14.974;2024-01-30T13:48:41;21.80;;;10.10;;
77234;SDS011;66253;50.526;14.974;2024-01-30T13:51:09;21.10;;;10.20;;
77234;SDS011;66253;50.526;14.974;2024-01-30T13:53:38;21.90;;;10.90;;
77234;SDS011;66253;50.526;14.974;2024-01-30T13:56:06;27.00;;;12.90;;
77234;SDS011;66253;50.526;14.974;2024-01-30T13:58:35;30.60;;;14.10;;
77234;SDS011;66253;50.526;14.974;2024-01-30T14:01:03;30.00;;;15.10;;
77234;SDS011;66253;50.526;14.974;2024-01-30T14:03:32;31.30;;;13.70;;
77234;SDS011;66253;50.526;14.974;2024-01-30T14:06:00;29.50;;;14.10;;
77234;SDS011;66253;50.526;14.974;2024-01-30T14:08:28;32.00;;;14.20;;
77234;SDS011;66253;50.526;14.974;2024-01-30T14:10:57;31.80;;;15.00;;
77234;SDS011;66253;50.526;14.974;2024-01-30T14:13:25;27.70;;;14.00;;
77234;SDS011;66253;50.526;14.974;2024-01-30T14:15:54;31.40;;;15.40;;
77234;SDS011;66253;50.526;14.974;2024-01-30T14:18:22;34.30;;;16.20;;
77234;SDS011;66253;50.526;14.974;2024-01-30T14:23:19;29.40;;;13.90;;
77234;SDS011;66253;50.526;14.974;2024-01-30T14:25:48;26.20;;;12.60;;
77234;SDS011;66253;50.526;14.974;2024-01-30T14:28:16;26.30;;;12.80;;
77234;SDS011;66253;50.526;14.974;2024-01-30T14:30:44;30.30;;;14.10;;